createdAt,value
2017-10-31T00:00:04.053Z,33.35
2017-10-31T00:01:09.657Z,28.83
2017-10-31T00:02:15.576Z,26.70
2017-10-31T00:03:21.171Z,26.42
2017-10-31T00:04:27.138Z,24.73
2017-10-31T00:05:32.724Z,28.67
2017-10-31T00:06:38.342Z,26.85
2017-10-31T00:07:43.938Z,20.58
2017-10-31T00:08:49.371Z,26.37
2017-10-31T00:09:54.944Z,28.20
2017-10-31T00:11:00.399Z,21.10
2017-10-31T00:12:05.965Z,17.33
2017-10-31T00:13:11.456Z,24.00
2017-10-31T00:14:16.998Z,22.30
2017-10-31T00:15:22.549Z,26.55
2017-10-31T00:16:28.126Z,23.50
2017-10-31T00:17:33.627Z,22.25
2017-10-31T00:18:39.110Z,27.20
2017-10-31T00:19:44.656Z,23.25
2017-10-31T00:20:50.127Z,23.12
2017-10-31T00:21:55.701Z,25.02
2017-10-31T00:23:01.193Z,27.00
2017-10-31T00:24:06.693Z,25.75
2017-10-31T00:25:12.686Z,21.23
2017-10-31T00:26:18.173Z,27.27
2017-10-31T00:27:23.681Z,24.27
2017-10-31T00:28:29.130Z,20.83
2017-10-31T00:29:34.600Z,25.55
2017-10-31T00:30:40.116Z,19.75
2017-10-31T00:33:06.476Z,21.50
2017-10-31T00:34:11.995Z,25.62
2017-10-31T00:35:17.849Z,28.05
2017-10-31T00:36:23.319Z,25.37
2017-10-31T00:37:28.803Z,22.35
2017-10-31T00:38:34.323Z,23.00
2017-10-31T00:39:39.857Z,22.98
2017-10-31T00:40:45.333Z,29.00
2017-10-31T00:41:50.759Z,24.60
2017-10-31T00:42:56.215Z,24.37
2017-10-31T00:44:01.732Z,21.40
2017-10-31T00:45:07.364Z,25.67
2017-10-31T00:46:12.812Z,24.42
2017-10-31T00:47:18.316Z,28.52
2017-10-31T00:48:23.853Z,23.87
2017-10-31T00:49:29.768Z,28.17
2017-10-31T00:50:35.447Z,28.15
2017-10-31T00:51:40.894Z,23.40
2017-10-31T00:52:46.378Z,27.48
2017-10-31T00:53:51.926Z,24.63
2017-10-31T00:54:57.752Z,17.67
2017-10-31T00:56:03.288Z,24.90
2017-10-31T00:57:09.084Z,23.20
2017-10-31T00:58:14.576Z,25.20
2017-10-31T00:59:20.148Z,26.75
2017-10-31T01:00:25.671Z,28.30
2017-10-31T01:01:31.067Z,23.48
2017-10-31T01:02:36.539Z,27.58
2017-10-31T01:03:42.082Z,26.08
2017-10-31T01:04:47.578Z,28.02
2017-10-31T01:05:53.324Z,22.30
2017-10-31T01:06:58.823Z,18.80
2017-10-31T01:08:04.334Z,20.85
2017-10-31T01:09:10.116Z,23.08
2017-10-31T01:10:15.615Z,24.67
2017-10-31T01:11:21.220Z,26.52
2017-10-31T01:12:27.186Z,19.50
2017-10-31T01:13:32.668Z,26.87
2017-10-31T01:14:38.906Z,26.40
2017-10-31T01:15:44.490Z,19.80
2017-10-31T01:16:49.925Z,17.60
2017-10-31T01:17:55.402Z,22.95
2017-10-31T01:19:00.877Z,14.65
2017-10-31T01:20:06.340Z,20.25
2017-10-31T01:21:11.870Z,25.23
2017-10-31T01:22:17.333Z,108.72
2017-10-31T01:23:22.785Z,70.40
2017-10-31T01:24:28.272Z,68.75
2017-10-31T01:25:33.711Z,33.85
2017-10-31T01:26:39.350Z,30.43
2017-10-31T01:27:44.827Z,30.25
2017-10-31T01:28:50.269Z,25.83
2017-10-31T01:29:56.266Z,22.62
2017-10-31T01:31:01.838Z,21.40
2017-10-31T01:32:07.277Z,21.42
2017-10-31T01:33:12.758Z,27.45
2017-10-31T01:34:18.271Z,18.85
2017-10-31T01:35:23.672Z,27.25
2017-10-31T01:36:29.085Z,19.90
2017-10-31T01:37:34.919Z,25.10
2017-10-31T01:38:40.387Z,24.12
2017-10-31T01:39:45.825Z,16.12
2017-10-31T01:40:51.412Z,21.33
2017-10-31T01:41:56.947Z,24.45
2017-10-31T01:43:02.703Z,20.12
2017-10-31T01:44:08.274Z,16.30
2017-10-31T01:45:13.719Z,18.30
2017-10-31T01:46:19.205Z,17.08
2017-10-31T01:47:24.648Z,18.40
2017-10-31T01:48:30.099Z,20.58
2017-10-31T01:49:35.799Z,16.80
2017-10-31T01:50:41.324Z,20.50
2017-10-31T01:51:46.870Z,22.27
2017-10-31T01:52:54.328Z,24.52
2017-10-31T01:54:00.532Z,21.10
2017-10-31T01:55:06.047Z,20.58
2017-10-31T01:56:11.470Z,25.85
2017-10-31T01:57:17.050Z,19.62
2017-10-31T01:58:22.670Z,27.23
2017-10-31T02:00:49.479Z,24.50
2017-10-31T02:01:55.005Z,16.85
2017-10-31T02:03:00.555Z,20.10
2017-10-31T02:04:06.255Z,22.05
2017-10-31T02:05:11.807Z,21.73
2017-10-31T02:06:17.912Z,21.23
2017-10-31T02:07:23.428Z,14.95
2017-10-31T02:08:29.005Z,20.65
2017-10-31T02:09:35.072Z,19.02
2017-10-31T02:10:40.477Z,24.77
2017-10-31T02:11:46.007Z,18.80
2017-10-31T02:12:51.857Z,21.65
2017-10-31T02:13:57.507Z,25.27
2017-10-31T02:15:02.981Z,21.60
2017-10-31T02:16:08.423Z,21.17
2017-10-31T02:17:13.878Z,14.15
2017-10-31T02:18:19.334Z,15.45
2017-10-31T02:19:24.803Z,15.85
2017-10-31T02:20:30.881Z,16.30
2017-10-31T02:21:36.407Z,15.77
2017-10-31T02:22:41.849Z,20.17
2017-10-31T02:23:47.314Z,26.48
2017-10-31T02:24:53.209Z,18.85
2017-10-31T02:25:58.736Z,23.20
2017-10-31T02:27:04.269Z,19.67
2017-10-31T02:28:10.510Z,22.15
2017-10-31T02:29:16.064Z,20.20
2017-10-31T02:30:21.633Z,33.65
2017-10-31T02:31:27.160Z,19.70
2017-10-31T02:32:32.772Z,22.60
2017-10-31T02:33:38.197Z,27.67
2017-10-31T02:34:43.729Z,25.42
2017-10-31T02:35:49.215Z,26.27
2017-10-31T02:36:55.027Z,21.13
2017-10-31T02:38:00.662Z,22.67
2017-10-31T02:39:10.520Z,24.77
2017-10-31T02:40:15.982Z,23.77
2017-10-31T02:41:21.517Z,26.00
2017-10-31T02:42:27.061Z,18.70
2017-10-31T02:43:32.541Z,20.75
2017-10-31T02:44:38.181Z,21.62
2017-10-31T02:45:43.680Z,23.60
2017-10-31T02:46:49.117Z,16.75
2017-10-31T02:47:55.240Z,21.62
2017-10-31T02:49:00.884Z,17.67
2017-10-31T02:50:06.385Z,24.45
2017-10-31T02:51:11.837Z,21.05
2017-10-31T02:52:17.407Z,17.83
2017-10-31T02:53:22.906Z,19.20
2017-10-31T02:54:28.365Z,21.63
2017-10-31T02:55:33.874Z,15.35
2017-10-31T02:56:39.362Z,21.20
2017-10-31T02:57:44.865Z,22.55
2017-10-31T02:58:50.614Z,20.52
2017-10-31T02:59:57.067Z,18.48
2017-10-31T03:01:02.551Z,22.83
2017-10-31T03:02:07.973Z,17.33
2017-10-31T03:03:13.439Z,18.90
2017-10-31T03:04:18.936Z,19.55
2017-10-31T03:05:24.412Z,19.57
2017-10-31T03:06:29.913Z,22.52
2017-10-31T03:07:35.452Z,21.10
2017-10-31T03:08:40.934Z,24.00
2017-10-31T03:09:47.556Z,17.30
2017-10-31T03:10:53.256Z,20.90
2017-10-31T03:12:00.997Z,16.95
2017-10-31T03:13:06.468Z,19.65
2017-10-31T03:14:11.939Z,19.92
2017-10-31T03:15:17.453Z,13.55
2017-10-31T03:16:22.971Z,23.52
2017-10-31T03:17:28.447Z,24.60
2017-10-31T03:18:33.915Z,21.60
2017-10-31T03:19:39.375Z,20.35
2017-10-31T03:20:44.975Z,26.60
2017-10-31T03:21:50.462Z,25.55
2017-10-31T03:22:55.993Z,25.17
2017-10-31T03:24:01.488Z,21.85
2017-10-31T03:25:06.927Z,26.50
2017-10-31T03:26:12.352Z,27.85
2017-10-31T03:27:18.098Z,23.00
2017-10-31T03:28:23.609Z,18.33
2017-10-31T03:29:29.075Z,18.50
2017-10-31T03:30:34.555Z,22.48
2017-10-31T03:31:40.077Z,18.62
2017-10-31T03:32:45.792Z,19.05
2017-10-31T03:33:51.282Z,24.33
2017-10-31T03:34:57.264Z,15.65
2017-10-31T03:36:02.754Z,25.42
2017-10-31T03:37:09.160Z,19.77
2017-10-31T03:38:15.351Z,16.35
2017-10-31T03:39:21.264Z,17.25
2017-10-31T03:40:26.999Z,16.50
2017-10-31T03:41:32.673Z,19.45
2017-10-31T03:42:38.255Z,21.67
2017-10-31T03:43:43.727Z,21.75
2017-10-31T03:44:49.207Z,22.65
2017-10-31T03:45:54.701Z,27.70
2017-10-31T03:47:00.104Z,22.98
2017-10-31T03:48:05.616Z,20.17
2017-10-31T03:49:11.108Z,25.85
2017-10-31T03:50:16.658Z,20.50
2017-10-31T03:51:22.150Z,23.25
2017-10-31T03:52:27.562Z,28.02
2017-10-31T03:53:33.052Z,14.95
2017-10-31T03:54:38.550Z,15.65
2017-10-31T03:55:44.323Z,27.05
2017-10-31T03:56:49.810Z,32.60
2017-10-31T03:57:55.313Z,34.60
2017-10-31T03:59:01.051Z,35.03
2017-10-31T04:00:06.665Z,34.83
2017-10-31T04:01:12.592Z,31.98
2017-10-31T04:02:18.438Z,23.73
2017-10-31T04:03:23.992Z,23.67
2017-10-31T04:04:29.559Z,18.65
2017-10-31T04:05:35.046Z,19.83
2017-10-31T04:06:40.601Z,21.20
2017-10-31T04:07:46.820Z,26.33
2017-10-31T04:08:52.317Z,22.85
2017-10-31T04:09:57.819Z,25.37
2017-10-31T04:11:03.386Z,20.65
2017-10-31T04:12:08.862Z,17.13
2017-10-31T04:13:14.512Z,24.95
2017-10-31T04:14:19.984Z,15.00
2017-10-31T04:15:25.467Z,15.73
2017-10-31T04:16:30.994Z,17.40
2017-10-31T04:17:36.415Z,20.75
2017-10-31T04:18:42.138Z,16.92
2017-10-31T04:19:47.587Z,19.23
2017-10-31T04:20:53.004Z,30.75
2017-10-31T04:21:58.396Z,23.17
2017-10-31T04:23:04.507Z,22.80
2017-10-31T04:24:10.237Z,20.93
2017-10-31T04:25:15.678Z,20.88
2017-10-31T04:26:21.116Z,22.47
2017-10-31T04:27:26.612Z,19.10
2017-10-31T04:28:32.123Z,22.33
2017-10-31T04:29:37.538Z,22.80
2017-10-31T04:30:43.070Z,16.00
2017-10-31T04:31:48.453Z,20.55
2017-10-31T04:32:53.919Z,20.27
2017-10-31T04:33:59.394Z,20.20
2017-10-31T04:35:04.878Z,23.87
2017-10-31T04:36:10.297Z,26.35
2017-10-31T04:37:15.699Z,22.42
2017-10-31T04:38:21.128Z,15.98
2017-10-31T04:39:26.763Z,23.02
2017-10-31T04:40:32.448Z,16.52
2017-10-31T04:41:37.911Z,20.65
2017-10-31T04:42:43.496Z,17.95
2017-10-31T04:43:48.950Z,19.27
2017-10-31T04:44:54.658Z,18.98
2017-10-31T04:46:00.098Z,25.07
2017-10-31T04:47:05.865Z,18.08
2017-10-31T04:48:11.696Z,15.70
2017-10-31T04:49:17.299Z,25.52
2017-10-31T04:50:22.755Z,19.50
2017-10-31T04:51:28.199Z,24.25
2017-10-31T04:52:33.607Z,22.00
2017-10-31T04:53:39.019Z,24.15
2017-10-31T04:54:44.711Z,19.95
2017-10-31T04:55:50.512Z,19.87
2017-10-31T04:56:55.957Z,22.30
2017-10-31T04:58:01.414Z,22.87
2017-10-31T04:59:06.907Z,24.95
2017-10-31T05:00:12.484Z,30.62
2017-10-31T05:01:18.195Z,21.60
2017-10-31T05:02:23.709Z,17.45
2017-10-31T05:03:29.108Z,16.62
2017-10-31T05:04:34.511Z,20.85
2017-10-31T05:05:39.969Z,22.73
2017-10-31T05:06:45.388Z,18.02
2017-10-31T05:07:50.814Z,20.45
2017-10-31T05:08:56.199Z,14.53
2017-10-31T05:10:01.641Z,17.48
2017-10-31T05:11:07.072Z,19.92
2017-10-31T05:12:15.491Z,23.60
2017-10-31T05:13:20.937Z,18.60
2017-10-31T05:14:26.345Z,20.30
2017-10-31T05:15:31.719Z,20.08
2017-10-31T05:16:37.327Z,20.17
2017-10-31T05:17:43.538Z,21.95
2017-10-31T05:18:48.909Z,27.20
2017-10-31T05:19:54.294Z,18.98
2017-10-31T05:20:59.688Z,23.83
2017-10-31T05:22:05.108Z,13.80
2017-10-31T05:23:10.486Z,19.70
2017-10-31T05:24:16.046Z,16.27
2017-10-31T05:25:21.448Z,20.45
2017-10-31T05:26:26.887Z,19.63
2017-10-31T05:27:32.427Z,20.00
2017-10-31T05:28:38.147Z,20.73
2017-10-31T05:29:43.569Z,25.95
2017-10-31T05:30:48.945Z,13.25
2017-10-31T05:31:54.329Z,18.40
2017-10-31T05:32:59.833Z,20.42
2017-10-31T05:34:07.709Z,20.30
2017-10-31T05:35:13.286Z,18.02
2017-10-31T05:36:18.702Z,19.43
2017-10-31T05:37:24.198Z,22.65
2017-10-31T05:38:29.779Z,23.62
2017-10-31T05:39:35.455Z,31.02
2017-10-31T05:40:41.307Z,35.97
2017-10-31T05:41:47.052Z,30.25
2017-10-31T05:42:52.489Z,30.50
2017-10-31T05:43:58.292Z,24.25
2017-10-31T05:45:04.107Z,21.02
2017-10-31T05:46:09.772Z,23.13
2017-10-31T05:47:15.412Z,18.25
2017-10-31T05:48:20.802Z,26.48
2017-10-31T05:49:26.259Z,17.83
2017-10-31T05:50:31.760Z,21.90
2017-10-31T05:51:37.214Z,21.35
2017-10-31T05:52:42.606Z,18.62
2017-10-31T05:53:48.008Z,17.85
2017-10-31T05:54:53.459Z,24.83
2017-10-31T05:55:58.928Z,17.67
2017-10-31T05:57:04.442Z,18.65
2017-10-31T05:58:09.844Z,16.30
2017-10-31T05:59:15.260Z,23.83
2017-10-31T06:00:20.676Z,25.77
2017-10-31T06:01:26.227Z,21.15
2017-10-31T06:02:31.671Z,21.05
2017-10-31T06:03:37.447Z,24.50
2017-10-31T06:04:42.894Z,29.80
2017-10-31T06:05:48.320Z,37.13
2017-10-31T06:06:53.743Z,35.53
2017-10-31T06:07:59.317Z,27.95
2017-10-31T06:09:05.320Z,27.17
2017-10-31T06:10:11.053Z,22.50
2017-10-31T06:11:16.595Z,25.85
2017-10-31T06:12:21.999Z,26.05
2017-10-31T06:13:27.419Z,20.00
2017-10-31T06:14:32.824Z,24.65
2017-10-31T06:15:38.299Z,21.80
2017-10-31T06:16:43.705Z,29.30
2017-10-31T06:17:49.085Z,23.45
2017-10-31T06:18:54.538Z,39.93
2017-10-31T06:20:00.246Z,41.08
2017-10-31T06:21:05.619Z,29.13
2017-10-31T06:22:15.476Z,31.30
2017-10-31T06:23:25.532Z,49.07
2017-10-31T06:26:38.531Z,43.00
2017-10-31T06:29:50.114Z,40.63
2017-10-31T06:33:02.877Z,33.00
2017-10-31T06:34:08.284Z,36.95
2017-10-31T06:35:13.717Z,35.45
2017-10-31T06:36:19.149Z,38.77
2017-10-31T06:37:24.570Z,37.50
2017-10-31T06:38:30.083Z,25.65
2017-10-31T06:39:35.478Z,36.25
2017-10-31T06:40:40.919Z,33.45
2017-10-31T06:41:46.420Z,29.48
2017-10-31T06:42:52.151Z,24.37
2017-10-31T06:43:57.858Z,20.35
2017-10-31T06:45:03.312Z,27.45
2017-10-31T06:46:08.712Z,22.17
2017-10-31T06:47:14.315Z,29.70
2017-10-31T06:48:19.732Z,27.85
2017-10-31T06:49:25.152Z,32.25
2017-10-31T06:50:30.589Z,26.50
2017-10-31T06:51:36.020Z,29.02
2017-10-31T06:52:41.725Z,33.60
2017-10-31T06:53:47.170Z,28.85
2017-10-31T06:54:52.733Z,32.53
2017-10-31T06:55:58.120Z,38.30
2017-10-31T06:57:03.566Z,23.30
2017-10-31T06:58:08.963Z,25.17
2017-10-31T06:59:14.397Z,28.25
2017-10-31T07:00:20.119Z,20.92
2017-10-31T07:01:25.531Z,26.53
2017-10-31T07:02:30.979Z,21.30
2017-10-31T07:03:36.505Z,21.85
2017-10-31T07:04:41.907Z,23.48
2017-10-31T07:05:47.362Z,23.52
2017-10-31T07:06:52.774Z,23.50
2017-10-31T07:07:58.190Z,21.67
2017-10-31T07:09:03.754Z,24.35
2017-10-31T07:10:09.135Z,23.92
2017-10-31T07:11:14.528Z,22.17
2017-10-31T07:12:19.990Z,20.35
2017-10-31T07:13:25.453Z,21.90
2017-10-31T07:14:31.083Z,26.57
2017-10-31T07:15:36.502Z,29.10
2017-10-31T07:16:41.888Z,32.97
2017-10-31T07:17:47.363Z,30.25
2017-10-31T07:18:52.760Z,25.48
2017-10-31T07:19:58.203Z,30.45
2017-10-31T07:21:03.644Z,23.60
2017-10-31T07:22:09.100Z,26.92
2017-10-31T07:23:14.762Z,22.65
2017-10-31T07:24:20.196Z,22.92
2017-10-31T07:25:25.610Z,24.00
2017-10-31T07:26:31.425Z,25.45
2017-10-31T07:27:36.914Z,24.15
2017-10-31T07:28:42.326Z,23.70
2017-10-31T07:29:47.723Z,26.15
2017-10-31T07:30:53.114Z,24.52
2017-10-31T07:31:58.663Z,26.62
2017-10-31T07:33:04.182Z,24.95
2017-10-31T07:34:09.882Z,24.40
2017-10-31T07:35:15.337Z,20.70
2017-10-31T07:36:20.783Z,23.17
2017-10-31T07:37:26.212Z,25.10
2017-10-31T07:38:31.765Z,24.73
2017-10-31T07:39:37.501Z,33.97
2017-10-31T07:40:42.959Z,26.45
2017-10-31T07:41:48.438Z,35.42
2017-10-31T07:42:53.873Z,40.27
2017-10-31T07:43:59.426Z,28.00
2017-10-31T07:45:04.873Z,22.05
2017-10-31T07:46:10.331Z,20.85
2017-10-31T07:47:15.753Z,17.60
2017-10-31T07:48:21.863Z,22.25
2017-10-31T07:49:27.294Z,24.70
2017-10-31T07:50:33.074Z,22.17
2017-10-31T07:51:38.550Z,21.40
2017-10-31T07:52:43.961Z,20.88
2017-10-31T07:53:49.699Z,30.00
2017-10-31T07:54:55.128Z,20.30
2017-10-31T07:56:00.546Z,24.20
2017-10-31T07:57:05.967Z,26.73
2017-10-31T07:58:11.411Z,19.20
2017-10-31T07:59:16.849Z,18.62
2017-10-31T08:00:22.275Z,19.05
2017-10-31T08:01:28.020Z,22.35
2017-10-31T08:02:33.464Z,26.05
2017-10-31T08:03:39.012Z,23.95
2017-10-31T08:04:44.459Z,38.33
2017-10-31T08:05:50.213Z,48.60
2017-10-31T08:06:57.016Z,46.97
2017-10-31T08:08:02.573Z,41.22
2017-10-31T08:09:08.267Z,30.02
2017-10-31T08:10:13.897Z,23.07
2017-10-31T08:11:19.367Z,28.48
2017-10-31T08:12:24.821Z,24.67
2017-10-31T08:13:30.266Z,31.30
2017-10-31T08:14:35.678Z,26.25
2017-10-31T08:15:41.183Z,24.73
2017-10-31T08:16:46.631Z,22.02
2017-10-31T08:17:52.323Z,28.23
2017-10-31T08:18:57.890Z,26.40
2017-10-31T08:20:03.351Z,28.50
2017-10-31T08:21:09.063Z,24.52
2017-10-31T08:22:14.466Z,28.83
2017-10-31T08:23:19.876Z,25.17
2017-10-31T08:24:25.326Z,28.03
2017-10-31T08:25:30.802Z,28.10
2017-10-31T08:26:36.220Z,32.45
2017-10-31T08:27:42.138Z,44.65
2017-10-31T08:28:47.892Z,31.33
2017-10-31T08:29:53.353Z,29.40
2017-10-31T08:30:58.888Z,28.70
2017-10-31T08:32:04.305Z,23.33
2017-10-31T08:33:09.748Z,35.78
2017-10-31T08:34:15.465Z,35.83
2017-10-31T08:35:20.966Z,37.83
2017-10-31T08:36:26.741Z,33.58
2017-10-31T08:37:32.257Z,27.48
2017-10-31T08:38:37.680Z,27.73
2017-10-31T08:39:43.137Z,23.45
2017-10-31T08:40:48.788Z,31.10
2017-10-31T08:41:54.307Z,29.05
2017-10-31T08:42:59.870Z,32.25
2017-10-31T08:44:05.386Z,33.70
2017-10-31T08:45:10.857Z,26.95
2017-10-31T08:46:16.646Z,28.60
2017-10-31T08:47:22.039Z,29.73
2017-10-31T08:48:27.869Z,26.92
2017-10-31T08:49:33.364Z,33.35
2017-10-31T08:50:38.897Z,30.37
2017-10-31T08:51:44.347Z,25.67
2017-10-31T08:52:49.901Z,36.85
2017-10-31T08:53:55.352Z,31.37
2017-10-31T08:55:00.809Z,31.30
2017-10-31T08:56:06.310Z,32.70
2017-10-31T08:57:12.103Z,26.55
2017-10-31T08:58:17.559Z,32.95
2017-10-31T08:59:23.027Z,30.55
2017-10-31T09:00:28.478Z,30.90
2017-10-31T09:01:33.960Z,26.30
2017-10-31T09:02:39.381Z,26.95
2017-10-31T09:03:44.777Z,28.37
2017-10-31T09:04:50.163Z,32.95
2017-10-31T09:05:55.580Z,26.80
2017-10-31T09:07:02.166Z,26.33
2017-10-31T09:08:07.606Z,34.70
2017-10-31T09:09:13.072Z,33.03
2017-10-31T09:10:18.762Z,28.62
2017-10-31T09:11:24.217Z,33.40
2017-10-31T09:12:29.729Z,34.80
2017-10-31T09:13:35.461Z,27.08
2017-10-31T09:14:40.926Z,25.25
2017-10-31T09:15:46.376Z,26.25
2017-10-31T09:16:51.825Z,34.15
2017-10-31T09:17:57.286Z,28.70
2017-10-31T09:19:02.752Z,34.97
2017-10-31T09:20:08.275Z,46.75
2017-10-31T09:21:13.751Z,34.10
2017-10-31T09:22:19.158Z,34.17
2017-10-31T09:23:24.891Z,33.13
2017-10-31T09:24:30.681Z,32.60
2017-10-31T09:25:36.096Z,29.08
2017-10-31T09:26:41.569Z,33.83
2017-10-31T09:27:46.991Z,30.10
2017-10-31T09:28:52.540Z,25.15
2017-10-31T09:29:58.139Z,26.23
2017-10-31T09:31:03.627Z,24.90
2017-10-31T09:32:09.073Z,28.40
2017-10-31T09:33:14.573Z,30.58
2017-10-31T09:34:20.065Z,32.38
2017-10-31T09:35:25.970Z,34.22
2017-10-31T09:36:31.496Z,32.78
2017-10-31T09:37:37.819Z,40.10
2017-10-31T09:38:43.454Z,36.22
2017-10-31T09:39:50.734Z,31.90
2017-10-31T09:40:59.202Z,33.55
2017-10-31T09:42:07.078Z,24.25
2017-10-31T09:43:13.637Z,29.63
2017-10-31T09:44:20.985Z,34.10
2017-10-31T09:45:28.300Z,27.20
2017-10-31T09:46:34.711Z,27.55
2017-10-31T09:47:41.967Z,32.75
2017-10-31T09:48:51.071Z,34.90
2017-10-31T09:49:59.470Z,24.00
2017-10-31T09:51:06.434Z,30.73
2017-10-31T09:52:13.466Z,30.37
2017-10-31T09:53:20.317Z,25.67
2017-10-31T09:54:27.414Z,27.08
2017-10-31T09:55:35.805Z,25.48
2017-10-31T09:56:42.830Z,23.83
2017-10-31T09:57:48.720Z,24.90
2017-10-31T09:58:54.231Z,31.50
2017-10-31T10:00:01.575Z,83.12
2017-10-31T10:01:07.881Z,38.25
2017-10-31T10:02:15.814Z,39.75
2017-10-31T10:03:23.029Z,32.72
2017-10-31T10:04:30.960Z,35.97
2017-10-31T10:05:39.155Z,28.42
2017-10-31T10:06:46.153Z,26.27
2017-10-31T10:07:53.535Z,33.10
2017-10-31T10:09:00.377Z,28.42
2017-10-31T10:10:07.363Z,23.67
2017-10-31T10:11:14.414Z,28.83
2017-10-31T10:12:21.448Z,26.67
2017-10-31T10:13:28.684Z,30.27
2017-10-31T10:14:34.759Z,32.92
2017-10-31T10:15:42.060Z,25.33
2017-10-31T10:16:48.695Z,22.75
2017-10-31T10:17:55.430Z,27.13
2017-10-31T10:19:01.916Z,28.73
2017-10-31T10:20:08.949Z,24.33
2017-10-31T10:21:15.556Z,28.73
2017-10-31T10:22:21.738Z,21.52
2017-10-31T10:23:30.777Z,27.55
2017-10-31T10:24:36.862Z,30.73
2017-10-31T10:25:43.372Z,31.27
2017-10-31T10:26:49.710Z,29.80
2017-10-31T10:27:55.973Z,36.22
2017-10-31T10:29:01.728Z,24.87
2017-10-31T10:30:08.710Z,28.45
2017-10-31T10:31:15.622Z,26.05
2017-10-31T10:32:22.234Z,28.23
2017-10-31T10:33:28.844Z,20.93
2017-10-31T10:34:35.240Z,29.70
2017-10-31T10:35:42.722Z,29.10
2017-10-31T10:36:48.983Z,30.62
2017-10-31T10:37:56.010Z,24.70
2017-10-31T10:39:02.603Z,47.58
2017-10-31T10:40:09.447Z,71.55
2017-10-31T10:41:16.668Z,37.10
2017-10-31T10:42:24.625Z,23.73
2017-10-31T10:43:30.963Z,28.10
2017-10-31T10:44:38.403Z,37.90
2017-10-31T10:45:44.772Z,35.63
2017-10-31T10:46:51.359Z,26.45
2017-10-31T10:47:58.083Z,19.40
2017-10-31T10:49:04.409Z,22.33
2017-10-31T10:50:11.000Z,25.77
2017-10-31T10:51:17.235Z,27.50
2017-10-31T10:52:23.820Z,25.80
2017-10-31T10:53:30.663Z,27.03
2017-10-31T10:54:38.171Z,20.13
2017-10-31T10:55:44.588Z,18.20
2017-10-31T10:56:51.703Z,22.00
2017-10-31T10:57:58.004Z,24.53
2017-10-31T10:59:04.922Z,19.63
2017-10-31T11:00:13.939Z,19.20
2017-10-31T11:01:21.120Z,16.87
2017-10-31T11:02:30.690Z,20.43
2017-10-31T11:03:39.853Z,15.67
2017-10-31T11:04:47.218Z,16.63
2017-10-31T11:05:54.727Z,12.07
2017-10-31T11:07:01.397Z,24.57
2017-10-31T11:08:12.966Z,28.33
2017-10-31T11:09:20.246Z,201.53
2017-10-31T11:10:29.767Z,101.60
2017-10-31T11:11:40.009Z,102.80
2017-10-31T11:12:47.883Z,39.77
2017-10-31T11:13:55.421Z,57.60
2017-10-31T11:15:03.904Z,28.70
2017-10-31T11:16:11.727Z,29.40
2017-10-31T11:17:20.525Z,20.27
2017-10-31T11:18:27.958Z,19.10
2017-10-31T11:19:36.477Z,37.73
2017-10-31T11:20:44.793Z,38.60
2017-10-31T11:21:55.418Z,35.30
2017-10-31T11:23:03.162Z,11.57
2017-10-31T11:24:10.002Z,17.73
2017-10-31T11:25:16.545Z,11.77
2017-10-31T11:26:23.415Z,6.10
2017-10-31T11:27:35.287Z,6.93
2017-10-31T11:28:43.368Z,4.70
2017-10-31T11:29:50.007Z,16.47
2017-10-31T11:30:56.780Z,8.77
2017-10-31T11:32:03.985Z,3.87
2017-10-31T11:33:15.660Z,7.00
2017-10-31T11:34:22.221Z,5.20
2017-10-31T11:35:31.048Z,6.93
2017-10-31T11:36:38.445Z,10.67
2017-10-31T11:37:46.049Z,11.23
2017-10-31T11:38:52.927Z,4.83
2017-10-31T11:40:00.959Z,8.23
2017-10-31T11:41:07.805Z,8.87
2017-10-31T11:42:13.428Z,14.13
2017-10-31T11:43:21.860Z,22.73
2017-10-31T11:45:41.801Z,8.87
2017-10-31T11:46:48.349Z,10.20
2017-10-31T11:47:57.842Z,7.70
2017-10-31T11:49:06.607Z,8.57
2017-10-31T11:50:14.459Z,16.07
2017-10-31T11:51:20.960Z,5.97
2017-10-31T11:52:29.195Z,8.00
2017-10-31T11:53:36.316Z,11.80
2017-10-31T11:54:43.700Z,13.03
2017-10-31T11:55:53.788Z,13.70
2017-10-31T11:57:04.056Z,4.30
2017-10-31T11:58:11.309Z,11.60
2017-10-31T11:59:16.858Z,6.43
2017-10-31T12:00:23.289Z,7.83
2017-10-31T12:01:32.607Z,4.03
2017-10-31T12:02:40.821Z,11.17
2017-10-31T12:03:47.184Z,5.57
2017-10-31T12:04:53.717Z,9.47
2017-10-31T12:05:59.962Z,12.00
2017-10-31T12:07:06.744Z,4.63
2017-10-31T12:08:12.828Z,4.20
2017-10-31T12:09:18.784Z,15.10
2017-10-31T12:10:27.252Z,24.33
2017-10-31T12:11:33.182Z,16.50
2017-10-31T12:12:39.338Z,7.17
2017-10-31T12:13:45.566Z,4.30
2017-10-31T12:14:52.001Z,5.37
2017-10-31T12:15:59.426Z,9.20
2017-10-31T12:17:05.746Z,13.83
2017-10-31T12:18:12.284Z,7.30
2017-10-31T12:19:18.452Z,8.43
2017-10-31T12:20:24.649Z,5.07
2017-10-31T12:21:31.181Z,11.40
2017-10-31T12:22:37.416Z,12.23
2017-10-31T12:23:43.686Z,12.20
2017-10-31T12:24:49.843Z,4.17
2017-10-31T12:25:56.051Z,9.30
2017-10-31T12:27:02.330Z,9.10
2017-10-31T12:28:09.860Z,4.23
2017-10-31T12:29:16.583Z,5.00
2017-10-31T12:30:26.852Z,7.77
2017-10-31T12:31:36.135Z,4.10
2017-10-31T12:32:42.515Z,9.43
2017-10-31T12:33:48.693Z,11.60
2017-10-31T12:34:55.045Z,12.37
2017-10-31T12:36:01.050Z,13.40
2017-10-31T12:37:08.477Z,11.50
2017-10-31T12:38:14.705Z,5.20
2017-10-31T12:39:20.930Z,8.00
2017-10-31T12:40:27.819Z,13.90
2017-10-31T12:41:34.233Z,7.67
2017-10-31T12:42:41.460Z,15.80
2017-10-31T12:43:48.034Z,31.20
2017-10-31T12:44:54.250Z,13.23
2017-10-31T12:46:00.457Z,15.70
2017-10-31T12:47:06.672Z,6.07
2017-10-31T12:48:12.934Z,10.63
2017-10-31T12:49:19.186Z,7.00
2017-10-31T12:50:25.627Z,11.40
2017-10-31T12:51:32.274Z,17.40
2017-10-31T12:52:38.745Z,15.93
2017-10-31T12:53:45.106Z,15.13
2017-10-31T12:54:50.628Z,13.10
2017-10-31T12:55:56.198Z,14.97
2017-10-31T12:57:01.780Z,8.43
2017-10-31T12:58:07.482Z,7.47
2017-10-31T12:59:14.296Z,10.33
2017-10-31T13:00:20.595Z,14.10
2017-10-31T13:01:26.302Z,13.60
2017-10-31T13:02:32.257Z,6.40
2017-10-31T13:03:37.878Z,11.73
2017-10-31T13:04:43.425Z,7.33
2017-10-31T13:05:49.611Z,4.03
2017-10-31T13:06:55.098Z,8.43
2017-10-31T13:08:00.931Z,13.20
2017-10-31T13:09:06.530Z,8.40
2017-10-31T13:10:12.069Z,16.70
2017-10-31T13:11:17.552Z,17.67
2017-10-31T13:12:23.078Z,7.57
2017-10-31T13:13:28.684Z,9.93
2017-10-31T13:14:34.232Z,6.63
2017-10-31T13:15:39.743Z,12.67
2017-10-31T13:16:45.281Z,7.00
2017-10-31T13:17:50.904Z,9.27
2017-10-31T13:18:57.289Z,9.60
2017-10-31T13:20:02.974Z,13.97
2017-10-31T13:21:08.512Z,11.40
2017-10-31T13:22:14.071Z,7.93
2017-10-31T13:23:20.007Z,6.50
2017-10-31T13:24:25.598Z,8.80
2017-10-31T13:25:31.124Z,11.40
2017-10-31T13:26:37.562Z,11.40
2017-10-31T13:27:43.980Z,9.43
2017-10-31T13:28:50.506Z,14.03
2017-10-31T13:29:56.989Z,9.57
2017-10-31T13:31:05.197Z,13.23
2017-10-31T13:32:11.736Z,17.40
2017-10-31T13:33:24.454Z,6.87
2017-10-31T13:34:34.585Z,10.10
2017-10-31T13:35:42.189Z,22.63
2017-10-31T13:36:49.029Z,60.83
2017-10-31T13:37:55.554Z,25.47
2017-10-31T13:39:06.184Z,16.13
2017-10-31T13:40:12.921Z,13.90
2017-10-31T13:41:20.653Z,12.80
2017-10-31T13:42:27.450Z,3.60
2017-10-31T13:43:34.555Z,9.70
2017-10-31T13:44:41.806Z,11.43
2017-10-31T13:45:47.274Z,7.77
2017-10-31T13:46:53.674Z,9.00
2017-10-31T13:47:59.895Z,17.67
2017-10-31T13:49:06.355Z,6.30
2017-10-31T13:50:12.718Z,8.73
2017-10-31T13:51:19.154Z,8.20
2017-10-31T13:52:25.466Z,5.37
2017-10-31T13:53:31.029Z,11.23
2017-10-31T13:54:36.584Z,19.53
2017-10-31T13:55:42.106Z,19.20
2017-10-31T13:56:47.638Z,13.63
2017-10-31T13:57:53.128Z,8.43
2017-10-31T13:58:58.742Z,13.57
2017-10-31T14:00:05.290Z,18.20
2017-10-31T14:01:10.910Z,10.20
2017-10-31T14:02:17.710Z,14.47
2017-10-31T14:03:24.205Z,9.83
2017-10-31T14:04:30.428Z,11.93
2017-10-31T14:05:36.677Z,4.03
2017-10-31T14:06:43.039Z,11.97
2017-10-31T14:07:49.534Z,10.10
2017-10-31T14:08:55.446Z,21.80
2017-10-31T14:10:01.985Z,11.77
2017-10-31T14:11:08.713Z,10.70
2017-10-31T14:12:15.414Z,31.53
2017-10-31T14:13:20.980Z,29.33
2017-10-31T14:14:26.474Z,18.80
2017-10-31T14:15:32.184Z,9.10
2017-10-31T14:16:37.672Z,10.67
2017-10-31T14:17:43.129Z,16.03
2017-10-31T14:18:49.273Z,5.80
2017-10-31T14:19:55.427Z,12.50
2017-10-31T14:21:01.869Z,20.27
2017-10-31T14:22:07.741Z,7.93
2017-10-31T14:23:13.375Z,24.07